KAPA/APA METAR and TAF weather

Enter ICAO airport designator
Station Type Date Time Source
KAPA METAR 2019/04/24 21:53 UTC NOAA

KAPA 242153Z 36008G17KT 10SM SCT090 SCT110 BKN220 22/01 A2994 RMK AO2 SLP092 T02220006


Station Type Date Time Source
KAPA Decoded METAR 2019/04/24 21:53 UTC NOAA

DENVER CENTENNIAL AIRPORT, CO, United States (KAPA) 39-34N 104-51W 1775M
Apr 24, 2019 - 05:53 PM EDT / 2019.04.24 2153 UTC
Wind: from the N (360 degrees) at 9 MPH (8 KT) gusting to 20 MPH (17 KT):0
Visibility: 10 mile(s):0
Sky conditions: mostly cloudy
Temperature: 72.0 F (22.2 C)
Dew Point: 33.1 F (0.6 C)
Relative Humidity: 23%
Pressure (altimeter): 29.94 in. Hg (1013 hPa)
ob: KAPA 242153Z 36008G17KT 10SM SCT090 SCT110 BKN220 22/01 A2994 RMK AO2 SLP092 T02220006
cycle: 22

Station Type Date Time Source
KAPA TAF 2019/04/24 22:18 UTC NOAA

TAF
AMD KAPA 242216Z 2422/2518 36012KT P6SM SCT090 SCT110 BKN200
FM250000 33006KT P6SM VCSH SCT090 BKN110
FM250800 01014G22KT P6SM SCT025 BKN070
FM251000 03011KT P6SM OVC012 PROB30 2510/2513 4SM -SHRA BR BKN007
FM251500 34010KT P6SM SCT015 BKN045
FM251700 03007KT P6SM SCT050

Example: see airport list